Time;durP1;ratioP1;P1;durP2;ratioP2;P2;SDS_P1;SDS_P2;PMS_P1;PMS_P2;Temp;Humidity;BMP_temperature;BMP_pressure;BME280_temperature;BME280_humidity;BME280_pressure;Samples;Min_cycle;Max_cycle;Signal;HPM_P1;HPM_P2
2021/10/24 00:03:04;;;;;;;231.10;22.65;;;;;;;4.30;68.28;101149.69;10345224;28;20057;-64
2021/10/24 00:08:06;;;;;;;300.63;18.45;;;;;;;4.36;68.45;101150.44;10363655;28;20056;-64
2021/10/24 00:13:07;;;;;;;384.15;22.50;;;;;;;4.35;68.35;101146.13;10345487;28;20510;-64
2021/10/24 00:18:09;;;;;;;273.02;18.88;;;;;;;4.43;68.61;101151.22;10345246;28;20089;-64
2021/10/24 00:23:14;;;;;;;168.43;13.07;;;;;;;4.40;68.01;101153.84;10345305;28;20050;-64
2021/10/24 00:28:16;;;;;;;191.48;15.93;;;;;;;4.43;68.33;101154.66;10344833;28;20099;-64
2021/10/24 00:33:22;;;;;;;209.85;15.85;;;;;;;4.48;68.02;101158.03;10345065;28;20049;-64
2021/10/24 00:38:24;;;;;;;173.02;18.17;;;;;;;4.46;68.42;101158.94;10344839;28;20418;-64
2021/10/24 00:43:26;;;;;;;359.55;22.20;;;;;;;4.65;68.04;101158.63;10344029;28;20045;-64
2021/10/24 00:48:27;;;;;;;402.92;29.85;;;;;;;4.44;67.55;101158.97;10343568;28;20393;-64
2021/10/24 00:53:29;;;;;;;202.50;24.35;;;;;;;4.35;68.46;101151.31;10344742;28;20080;-64
2021/10/24 00:58:33;;;;;;;196.45;14.18;;;;;;;4.42;67.78;101142.59;10343863;28;20057;-64
2021/10/24 01:03:36;;;;;;;526.92;33.05;;;;;;;4.28;67.98;101141.09;10343411;28;20057;-64
2021/10/24 01:08:39;;;;;;;322.13;20.00;;;;;;;4.16;68.23;101136.09;10343673;28;20409;-64
2021/10/24 01:13:41;;;;;;;876.45;39.90;;;;;;;4.00;68.54;101132.00;10342596;28;20890;-64
2021/10/24 01:18:44;;;;;;;1155.05;46.78;;;;;;;4.04;68.51;101128.50;10342432;28;20409;-64
2021/10/24 01:23:46;;;;;;;585.67;28.67;;;;;;;4.17;68.68;101124.88;10343181;28;20053;-64
2021/10/24 01:28:48;;;;;;;584.72;30.90;;;;;;;4.34;68.23;101118.53;10342978;28;20342;-64
2021/10/24 01:33:49;;;;;;;325.50;17.45;;;;;;;4.31;68.48;101108.22;10343820;28;20708;-64
2021/10/24 01:38:51;;;;;;;677.65;26.30;;;;;;;4.34;67.97;101103.00;10341878;28;20141;-64
2021/10/24 01:43:53;;;;;;;205.57;18.73;;;;;;;4.21;68.39;101098.06;10342994;28;20054;-64
2021/10/24 01:48:55;;;;;;;543.05;23.42;;;;;;;4.23;68.07;101094.53;10341379;28;20696;-64
2021/10/24 01:53:57;;;;;;;458.77;27.65;;;;;;;4.28;68.61;101081.53;10342430;28;20060;-64
2021/10/24 01:58:58;;;;;;;454.73;22.10;;;;;;;4.29;68.43;101089.25;10342577;28;20130;-64
2021/10/24 02:04:01;;;;;;;263.58;19.30;;;;;;;4.24;68.58;101079.88;10347974;28;20059;-64
2021/10/24 02:09:02;;;;;;;308.08;20.48;;;;;;;4.39;68.26;101072.69;10349916;28;20076;-64
2021/10/24 02:14:04;;;;;;;155.77;13.45;;;;;;;4.24;68.35;101074.69;10352625;28;20068;-64
2021/10/24 02:19:06;;;;;;;243.75;16.83;;;;;;;4.37;68.23;101073.63;10351846;28;20050;-64
2021/10/24 02:24:07;;;;;;;235.38;16.73;;;;;;;4.46;67.88;101068.28;10355965;28;20049;-64
2021/10/24 02:29:09;;;;;;;364.27;25.20;;;;;;;4.43;67.29;101065.75;10356723;28;20422;-64
2021/10/24 02:34:11;;;;;;;348.98;25.50;;;;;;;4.26;67.38;101060.84;10357512;28;20383;-64
2021/10/24 02:39:13;;;;;;;194.80;16.58;;;;;;;4.01;68.08;101062.09;10355475;28;20524;-64
2021/10/24 02:44:14;;;;;;;203.20;18.77;;;;;;;4.08;67.75;101055.09;10355831;28;20405;-64
2021/10/24 02:49:16;;;;;;;337.27;27.63;;;;;;;3.90;67.61;101064.00;10356395;28;20129;-64
2021/10/24 02:54:18;;;;;;;348.05;26.83;;;;;;;3.63;68.29;101056.59;10384900;28;20049;-64
2021/10/24 02:59:21;;;;;;;194.45;18.33;;;;;;;3.71;68.92;101055.59;10356034;28;20074;-64
2021/10/24 03:04:22;;;;;;;412.88;26.77;;;;;;;3.64;68.13;101043.63;10351417;28;20080;-64
2021/10/24 03:09:24;;;;;;;484.75;31.40;;;;;;;3.48;68.62;101046.44;10350036;28;20425;-64
2021/10/24 03:14:26;;;;;;;267.25;16.55;;;;;;;3.47;68.83;101044.72;10347322;28;20132;-64
2021/10/24 03:19:29;;;;;;;291.50;17.65;;;;;;;3.70;68.76;101037.53;10348461;28;20050;-64
2021/10/24 03:24:31;;;;;;;419.88;27.48;;;;;;;3.97;68.27;101038.84;10347955;28;21150;-64
2021/10/24 03:29:32;;;;;;;282.90;19.02;;;;;;;3.77;68.36;101037.41;10346917;28;20056;-64
2021/10/24 03:34:34;;;;;;;342.30;20.35;;;;;;;3.97;68.43;101033.69;10354753;28;20229;-64
2021/10/24 03:39:36;;;;;;;258.65;17.05;;;;;;;4.03;68.27;101028.44;10345691;28;20046;-64
2021/10/24 03:44:38;;;;;;;218.15;17.08;;;;;;;4.08;68.26;101032.66;10347435;28;20050;-64
2021/10/24 03:49:41;;;;;;;318.10;20.00;;;;;;;4.11;67.64;101035.19;10346351;28;20069;-64
2021/10/24 03:54:43;;;;;;;490.63;34.08;;;;;;;3.84;68.03;101033.03;10347542;28;20050;-64
2021/10/24 03:59:45;;;;;;;467.63;26.48;;;;;;;3.55;68.37;101027.38;10345925;28;20056;-64
2021/10/24 04:04:46;;;;;;;356.15;23.63;;;;;;;3.63;68.83;101028.13;10345900;28;20057;-64
2021/10/24 04:09:48;;;;;;;635.22;33.00;;;;;;;3.35;68.56;101026.78;10346249;28;20565;-64
2021/10/24 04:14:50;;;;;;;312.88;19.85;;;;;;;3.44;69.26;101017.19;10345072;28;20058;-64
2021/10/24 04:19:54;;;;;;;361.95;26.25;;;;;;;3.26;69.03;101021.72;10346076;28;20054;-64
2021/10/24 04:24:56;;;;;;;368.90;27.13;;;;;;;3.23;68.87;101026.97;10345722;28;20063;-64
2021/10/24 04:29:58;;;;;;;459.73;26.90;;;;;;;3.34;68.89;101020.75;10345070;28;20046;-64
2021/10/24 04:35:00;;;;;;;497.52;31.02;;;;;;;3.36;68.37;101021.59;10345879;28;20050;-64
2021/10/24 04:40:04;;;;;;;280.48;20.40;;;;;;;3.14;68.65;101019.31;10345270;28;20052;-64
2021/10/24 04:45:07;;;;;;;377.75;20.85;;;;;;;2.93;68.81;101017.81;10344716;28;20064;-64
2021/10/24 04:50:09;;;;;;;497.67;21.73;;;;;;;2.91;68.79;101004.94;10344657;28;20056;-64
2021/10/24 04:55:11;;;;;;;443.85;21.27;;;;;;;2.97;68.56;100998.81;10345079;28;20924;-64
2021/10/24 05:00:13;;;;;;;244.98;17.55;;;;;;;2.98;68.87;100996.25;10344389;28;20042;-64
2021/10/24 05:05:14;;;;;;;159.48;14.32;;;;;;;3.01;68.97;100991.03;10343840;28;20049;-64
2021/10/24 05:10:16;;;;;;;149.45;14.15;;;;;;;3.07;68.54;100985.78;10344960;28;20513;-64
2021/10/24 05:15:19;;;;;;;197.40;13.45;;;;;;;3.01;68.09;100983.28;10344439;28;20058;-64
2021/10/24 05:20:21;;;;;;;347.17;21.73;;;;;;;3.10;67.89;100986.63;10344596;28;20056;-64
2021/10/24 05:25:22;;;;;;;348.92;23.45;;;;;;;2.88;67.85;100986.03;10344343;28;20282;-65
2021/10/24 05:30:25;;;;;;;324.63;25.85;;;;;;;2.63;68.06;100980.28;10344315;28;20046;-64
2021/10/24 05:35:27;;;;;;;283.27;20.50;;;;;;;2.51;68.46;100976.97;10343622;28;20054;-64
2021/10/24 05:40:29;;;;;;;190.10;19.48;;;;;;;2.74;68.91;100973.28;10344518;28;20530;-64
2021/10/24 05:45:30;;;;;;;444.65;31.08;;;;;;;2.68;68.19;100964.75;10353971;28;20128;-64
2021/10/24 05:50:32;;;;;;;309.88;25.65;;;;;;;2.59;68.89;100963.13;10345164;28;20046;-64
2021/10/24 05:55:35;;;;;;;199.48;20.67;;;;;;;2.64;68.66;100969.06;10348674;28;20053;-64
2021/10/24 06:00:37;;;;;;;154.07;15.88;;;;;;;2.82;68.87;100974.06;10351038;28;20129;-64
2021/10/24 06:05:40;;;;;;;490.88;34.75;;;;;;;2.81;68.53;100976.63;10350937;28;20554;-64
2021/10/24 06:10:41;;;;;;;275.58;22.92;;;;;;;2.88;68.56;100968.81;10350889;28;20129;-64
2021/10/24 06:15:43;;;;;;;251.70;22.02;;;;;;;3.11;68.52;100978.00;10350224;28;20054;-64
2021/10/24 06:20:45;;;;;;;281.48;25.45;;;;;;;3.14;68.02;100967.59;10350830;28;20074;-64
2021/10/24 06:25:46;;;;;;;131.13;17.27;;;;;;;3.31;68.65;100982.03;10350705;28;20399;-64
2021/10/24 06:30:48;;;;;;;138.60;14.82;;;;;;;3.44;67.79;100983.56;10349725;28;20050;-64
2021/10/24 06:35:51;;;;;;;172.02;16.67;;;;;;;3.28;67.74;100976.03;10349687;28;20077;-64
2021/10/24 06:40:53;;;;;;;130.43;15.05;;;;;;;3.23;68.28;100983.00;10349961;28;20045;-64
2021/10/24 06:45:54;;;;;;;322.63;25.08;;;;;;;2.98;68.33;100977.28;10352641;28;20053;-64
2021/10/24 06:50:56;;;;;;;210.18;16.35;;;;;;;2.98;68.50;100980.75;10349346;28;20054;-64
2021/10/24 06:55:58;;;;;;;117.53;16.25;;;;;;;3.14;69.04;100983.13;10347669;28;20072;-64
2021/10/24 07:01:03;;;;;;;286.52;21.58;;;;;;;3.20;68.39;100983.03;10348794;28;20082;-64
2021/10/24 07:06:05;;;;;;;368.67;29.70;;;;;;;3.25;67.78;100991.59;10348338;28;20143;-64
2021/10/24 07:11:07;;;;;;;353.20;26.05;;;;;;;3.19;68.10;100995.13;10348409;28;20190;-64
2021/10/24 07:16:08;;;;;;;278.23;23.23;;;;;;;3.38;68.10;100995.72;10345240;28;20065;-64
2021/10/24 07:21:10;;;;;;;323.27;20.77;;;;;;;3.34;67.99;101000.06;10348952;28;20429;-65
2021/10/24 07:26:12;;;;;;;421.20;19.90;;;;;;;3.12;67.92;100996.06;10348249;28;20060;-64
2021/10/24 07:31:14;;;;;;;469.08;21.70;;;;;;;3.30;67.60;101000.13;10346555;28;20399;-64
2021/10/24 07:36:16;;;;;;;459.20;31.85;;;;;;;3.11;68.04;101001.25;10347753;28;20054;-64
2021/10/24 07:41:18;;;;;;;99.28;14.65;;;;;;;3.16;68.36;100996.88;10346208;28;20297;-64
2021/10/24 07:46:19;;;;;;;371.42;23.52;;;;;;;3.35;67.92;100998.34;10346729;28;20138;-65
2021/10/24 07:51:26;;;;;;;170.82;20.52;;;;;;;3.35;68.30;100991.47;10347335;28;20808;-64
2021/10/24 07:56:28;;;;;;;251.50;21.35;;;;;;;3.63;67.59;100986.75;10347783;28;20049;-64
2021/10/24 08:01:39;;;;;;;383.45;28.92;;;;;;;3.64;67.70;100991.06;10345949;28;20046;-64
2021/10/24 08:06:42;;;;;;;217.93;21.02;;;;;;;3.86;67.25;100992.47;10343630;28;20069;-65
2021/10/24 08:11:44;;;;;;;430.30;25.05;;;;;;;4.12;66.72;100986.84;10340856;28;20061;-65
2021/10/24 08:16:45;;;;;;;346.20;26.58;;;;;;;3.98;67.04;100981.06;10344653;28;20045;-64
2021/10/24 08:21:49;;;;;;;144.07;14.88;;;;;;;4.06;66.73;100986.97;10344790;28;20053;-64
2021/10/24 08:26:52;;;;;;;233.35;19.05;;;;;;;3.76;66.46;100978.75;10342694;28;20487;-65
2021/10/24 08:31:54;;;;;;;118.45;20.35;;;;;;;3.63;66.95;100985.03;10345651;28;20054;-64
2021/10/24 08:36:56;;;;;;;191.40;24.55;;;;;;;3.65;66.77;100983.25;10343765;28;20042;-64
2021/10/24 08:41:59;;;;;;;50.63;15.30;;;;;;;4.03;66.51;100982.69;10345156;28;20046;-64
2021/10/24 08:47:03;;;;;;;26.40;12.93;;;;;;;4.51;66.23;100976.66;10343945;28;20213;-64
2021/10/24 08:52:06;;;;;;;15.82;12.30;;;;;;;4.63;65.62;100965.22;10343711;28;20237;-65
2021/10/24 08:57:07;;;;;;;18.15;13.20;;;;;;;4.58;65.40;100967.88;10344383;28;20513;-64
2021/10/24 09:02:09;;;;;;;20.40;13.98;;;;;;;4.72;64.77;100959.84;10343659;28;20060;-64
2021/10/24 09:07:11;;;;;;;16.48;12.45;;;;;;;4.99;64.90;100955.84;10343563;28;20132;-64
2021/10/24 09:12:15;;;;;;;19.98;12.82;;;;;;;5.30;64.34;100943.94;10344777;28;20129;-64
2021/10/24 09:17:19;;;;;;;13.27;11.48;;;;;;;5.51;64.20;100939.09;10343388;28;20479;-64
2021/10/24 09:22:38;;;;;;;16.10;11.65;;;;;;;5.30;63.57;100938.75;10355923;28;20177;-65
2021/10/24 09:27:44;;;;;;;17.00;12.52;;;;;;;5.03;64.33;100926.38;10346358;28;20057;-65
2021/10/24 09:32:56;;;;;;;15.25;10.65;;;;;;;4.89;64.96;100918.91;10370358;28;20049;-64
2021/10/24 09:37:59;;;;;;;12.80;10.73;;;;;;;5.02;65.09;100919.50;10367031;28;20397;-64
2021/10/24 09:43:18;;;;;;;15.98;11.13;;;;;;;5.34;64.17;100911.84;10353536;28;20053;-65
2021/10/24 09:48:21;;;;;;;14.00;10.05;;;;;;;5.44;64.02;100910.75;10352657;28;20054;-65
2021/10/24 09:53:27;;;;;;;13.30;10.35;;;;;;;5.51;63.94;100899.34;10352278;28;20156;-65
2021/10/24 09:58:43;;;;;;;23.13;12.57;;;;;;;5.37;64.58;100898.81;10351674;28;20094;-65
2021/10/24 10:03:45;;;;;;;12.75;10.23;;;;;;;5.53;64.68;100897.56;10350231;28;20060;-65
2021/10/24 10:08:49;;;;;;;13.55;10.82;;;;;;;5.67;64.50;100889.44;10352082;28;20446;-64
2021/10/24 10:13:58;;;;;;;15.13;10.38;;;;;;;6.05;64.13;100874.59;10352021;28;20054;-65
2021/10/24 10:19:03;;;;;;;13.75;10.65;;;;;;;6.52;63.03;100869.88;10354955;28;20513;-64
2021/10/24 10:24:08;;;;;;;13.43;10.20;;;;;;;6.54;63.20;100868.94;10390370;28;20288;-64
2021/10/24 10:29:13;;;;;;;12.75;9.57;;;;;;;6.98;62.97;100852.03;10386525;28;20046;-64
2021/10/24 10:34:15;;;;;;;11.93;8.95;;;;;;;7.07;62.29;100850.03;10350544;28;20064;-64
2021/10/24 10:39:32;;;;;;;11.00;9.38;;;;;;;7.17;62.43;100843.63;10349857;28;20050;-64
2021/10/24 10:44:34;;;;;;;12.15;8.88;;;;;;;7.32;62.37;100828.44;10348176;28;20050;-64
2021/10/24 10:49:36;;;;;;;13.25;9.13;;;;;;;7.48;62.20;100821.81;10350171;28;20046;-64
2021/10/24 10:54:57;;;;;;;11.60;9.07;;;;;;;7.36;62.29;100827.44;10350128;28;20627;-64
2021/10/24 11:00:00;;;;;;;12.17;8.20;;;;;;;7.45;62.58;100814.13;10349718;28;20060;-64
2021/10/24 11:05:03;;;;;;;11.82;7.50;;;;;;;7.82;61.95;100810.22;10349442;28;20060;-64
2021/10/24 11:10:17;;;;;;;9.48;7.20;;;;;;;8.10;61.18;100798.84;10350068;28;20054;-64
2021/10/24 11:15:29;;;;;;;11.18;6.95;;;;;;;8.32;60.54;100785.03;10349240;28;20057;-65
2021/10/24 11:20:42;;;;;;;9.73;6.97;;;;;;;8.59;59.62;100783.97;10348626;28;20224;-65
2021/10/24 11:25:45;;;;;;;8.70;6.10;;;;;;;8.78;59.95;100773.69;10385801;28;20059;-65
2021/10/24 11:31:00;;;;;;;8.10;6.13;;;;;;;9.06;58.90;100765.59;10372331;28;20443;-64
2021/10/24 11:36:04;;;;;;;14.27;6.15;;;;;;;9.26;59.43;100761.25;10349062;28;20414;-65
2021/10/24 11:41:18;;;;;;;9.38;6.10;;;;;;;9.40;58.72;100753.72;10348043;28;21041;-64
2021/10/24 11:46:19;;;;;;;11.20;6.00;;;;;;;9.66;58.41;100747.44;10347801;28;20158;-64
2021/10/24 11:51:21;;;;;;;8.70;5.93;;;;;;;9.79;57.63;100738.13;10346939;28;20064;-64
2021/10/24 11:56:38;;;;;;;9.57;5.50;;;;;;;10.01;57.17;100727.59;10347111;28;20053;-64
2021/10/24 12:01:40;;;;;;;10.10;5.47;;;;;;;10.20;57.26;100704.91;10347202;28;20168;-64
2021/10/24 12:07:04;;;;;;;8.82;4.88;;;;;;;10.38;56.14;100710.16;10347152;28;20065;-64
2021/10/24 12:12:23;;;;;;;8.80;4.85;;;;;;;10.64;55.80;100688.03;10346946;28;20092;-64
2021/10/24 12:17:33;;;;;;;9.10;4.45;;;;;;;10.84;55.68;100682.66;10346867;28;20143;-64
2021/10/24 12:23:03;;;;;;;8.85;4.50;;;;;;;11.08;54.82;100683.25;10345220;28;20050;-64
2021/10/24 12:28:24;;;;;;;9.65;4.40;;;;;;;11.32;53.47;100668.09;10379913;28;20261;-65
2021/10/24 12:33:31;;;;;;;6.53;4.07;;;;;;;11.55;52.96;100665.09;10348659;28;20046;-64
2021/10/24 12:38:54;;;;;;;8.95;3.70;;;;;;;11.81;52.57;100654.97;10346368;28;20092;-64
2021/10/24 12:43:56;;;;;;;8.25;3.75;;;;;;;11.99;53.13;100653.97;10345777;28;20418;-64
2021/10/24 12:49:08;;;;;;;6.13;3.53;;;;;;;12.16;52.48;100645.19;10345833;28;20050;-65
2021/10/24 12:54:12;;;;;;;6.80;2.97;;;;;;;12.45;51.92;100638.34;10345587;28;20482;-64
2021/10/24 12:59:14;;;;;;;9.73;3.60;;;;;;;12.58;50.75;100634.94;10360529;28;20054;-64
2021/10/24 13:04:16;;;;;;;5.85;2.92;;;;;;;12.70;50.03;100638.66;10345577;28;20297;-64
2021/10/24 13:09:19;;;;;;;7.13;3.55;;;;;;;12.72;49.44;100632.38;10344762;28;20455;-64
2021/10/24 13:14:20;;;;;;;6.88;3.00;;;;;;;12.88;48.81;100630.56;10344890;28;20211;-64
2021/10/24 13:19:22;;;;;;;7.88;3.05;;;;;;;12.96;48.26;100619.63;10345067;28;20056;-64
2021/10/24 13:24:24;;;;;;;5.80;2.45;;;;;;;13.07;47.88;100617.19;10344701;28;20054;-64
2021/10/24 13:29:25;;;;;;;5.20;2.33;;;;;;;13.18;47.91;100598.19;10345042;28;20058;-64
2021/10/24 13:34:27;;;;;;;5.63;2.70;;;;;;;13.34;47.24;100589.28;10344625;28;20445;-64
2021/10/24 13:39:29;;;;;;;7.95;2.70;;;;;;;13.38;46.99;100590.78;10344912;28;20073;-64
2021/10/24 13:44:30;;;;;;;7.10;2.60;;;;;;;13.45;46.46;100589.53;10344622;28;20053;-64
2021/10/24 13:49:32;;;;;;;4.70;2.00;;;;;;;13.49;44.29;100587.53;10344353;28;20460;-64
2021/10/24 13:54:34;;;;;;;5.45;2.30;;;;;;;13.56;44.03;100580.97;10343898;28;20928;-64
2021/10/24 13:59:37;;;;;;;5.13;2.28;;;;;;;13.54;43.59;100578.44;10344136;28;20049;-64
2021/10/24 14:04:45;;;;;;;4.07;2.00;;;;;;;13.59;42.93;100572.91;10344261;28;20113;-64
2021/10/24 14:09:50;;;;;;;7.57;2.28;;;;;;;13.49;43.24;100577.03;10344087;28;20056;-64
2021/10/24 14:14:52;;;;;;;5.00;2.40;;;;;;;13.40;43.43;100560.00;10346994;28;20065;-64
2021/10/24 14:19:53;;;;;;;5.25;2.35;;;;;;;13.36;43.84;100557.66;10350142;28;20050;-64
2021/10/24 14:24:55;;;;;;;6.93;2.97;;;;;;;13.22;43.72;100557.66;10350739;28;20053;-64
2021/10/24 14:30:01;;;;;;;6.32;2.88;;;;;;;13.14;43.86;100559.91;10350795;28;20320;-64
2021/10/24 14:35:05;;;;;;;5.55;2.78;;;;;;;12.98;43.71;100566.06;10350791;28;20042;-64
2021/10/24 14:40:08;;;;;;;5.95;2.65;;;;;;;12.90;44.51;100563.06;10350984;28;20087;-64
2021/10/24 14:45:10;;;;;;;5.97;2.72;;;;;;;12.80;44.43;100561.91;10350707;28;20054;-64
2021/10/24 14:50:11;;;;;;;7.30;2.75;;;;;;;12.80;44.93;100559.28;10350506;28;20660;-64
2021/10/24 14:55:13;;;;;;;5.00;2.63;;;;;;;12.73;44.83;100563.22;10350378;28;20394;-64
2021/10/24 15:00:15;;;;;;;10.98;3.20;;;;;;;12.64;45.65;100558.50;10350323;28;20050;-64
2021/10/24 15:05:18;;;;;;;6.32;3.13;;;;;;;12.53;45.61;100555.66;10348104;28;20065;-64
2021/10/24 15:10:21;;;;;;;9.43;3.03;;;;;;;12.41;45.91;100552.91;10349821;28;20421;-64
2021/10/24 15:15:22;;;;;;;6.45;3.35;;;;;;;12.26;46.20;100549.31;10349040;28;20058;-64
2021/10/24 15:25:45;;;;;;;7.38;3.20;;;;;;;12.06;46.87;100537.34;10348842;28;20148;-64
2021/10/24 15:30:46;;;;;;;7.75;3.15;;;;;;;11.87;47.59;100541.06;10347749;28;20490;-64
2021/10/24 15:35:48;;;;;;;7.03;3.10;;;;;;;11.71;48.29;100534.97;10349156;28;20045;-64
2021/10/24 15:40:50;;;;;;;8.95;3.42;;;;;;;11.51;48.69;100533.47;10348353;28;20056;-64
2021/10/24 15:45:51;;;;;;;6.68;3.50;;;;;;;11.28;48.95;100529.44;10348488;28;20057;-64
2021/10/24 15:50:53;;;;;;;9.65;3.50;;;;;;;11.06;49.75;100528.03;10347904;28;20054;-64
2021/10/24 15:55:55;;;;;;;6.93;3.58;;;;;;;10.92;50.22;100533.97;10347653;28;20161;-64
2021/10/24 16:00:57;;;;;;;7.68;4.18;;;;;;;10.64;51.77;100540.69;10346750;28;20050;-64
2021/10/24 16:06:00;;;;;;;7.50;4.00;;;;;;;10.32;52.66;100542.25;10347315;28;20089;-64
2021/10/24 16:11:01;;;;;;;7.22;3.40;;;;;;;9.96;53.60;100544.88;10347918;28;20184;-64
2021/10/24 16:16:04;;;;;;;7.25;3.13;;;;;;;9.62;54.33;100550.81;10346614;28;20204;-64
2021/10/24 16:21:06;;;;;;;7.95;2.80;;;;;;;9.40;54.71;100549.25;10345654;28;20108;-64
2021/10/24 16:26:09;;;;;;;6.63;3.28;;;;;;;9.19;55.08;100547.59;10344654;28;20570;-62
2021/10/24 16:31:10;;;;;;;9.10;4.00;;;;;;;9.01;55.24;100546.66;10345675;28;20064;-63
2021/10/24 16:36:12;;;;;;;10.50;5.35;;;;;;;8.75;55.34;100544.31;10345031;28;20596;-63
2021/10/24 16:41:14;;;;;;;12.27;7.50;;;;;;;8.21;56.67;100546.59;10344566;28;20576;-62
2021/10/24 16:46:16;;;;;;;8.95;5.47;;;;;;;8.07;57.58;100538.44;10346042;28;20058;-62
2021/10/24 16:51:17;;;;;;;10.93;6.28;;;;;;;7.96;57.59;100537.09;10346109;28;20416;-63
2021/10/24 16:56:19;;;;;;;10.60;6.10;;;;;;;7.83;57.79;100545.47;10345408;28;20050;-62
2021/10/24 17:01:21;;;;;;;11.50;6.10;;;;;;;7.68;58.26;100536.50;10344361;28;20325;-62
2021/10/24 17:06:23;;;;;;;8.65;5.10;;;;;;;7.48;59.29;100531.19;10345131;28;20104;-63
2021/10/24 17:11:24;;;;;;;7.97;4.65;;;;;;;7.35;59.79;100524.75;10344227;28;20522;-63
2021/10/24 17:16:46;;;;;;;11.60;5.60;;;;;;;7.36;59.85;100544.66;10344163;28;20423;-63
2021/10/24 17:21:49;;;;;;;9.77;5.97;;;;;;;7.28;60.34;100551.03;10343503;28;20080;-62
2021/10/24 17:26:51;;;;;;;12.20;6.70;;;;;;;7.15;60.66;100545.44;10344697;28;20521;-62
2021/10/24 17:31:53;;;;;;;29.33;18.38;;;;;;;7.02;61.32;100558.03;10344422;28;20498;-63
2021/10/24 17:36:56;;;;;;;17.13;7.53;;;;;;;6.91;62.04;100556.72;10344541;28;20104;-62
2021/10/24 17:41:57;;;;;;;12.95;6.68;;;;;;;6.80;62.35;100544.06;10343804;28;20164;-63
2021/10/24 17:46:59;;;;;;;15.25;7.32;;;;;;;6.55;62.76;100548.41;10342803;28;20045;-63
2021/10/24 17:52:01;;;;;;;9.45;6.68;;;;;;;6.54;62.94;100557.09;10350981;28;20057;-62
2021/10/24 17:57:03;;;;;;;13.05;8.02;;;;;;;6.45;63.20;100548.78;10351878;28;20100;-62
2021/10/24 18:02:05;;;;;;;14.48;8.48;;;;;;;6.37;63.31;100543.81;10352085;28;20071;-63
2021/10/24 18:07:07;;;;;;;11.93;6.53;;;;;;;6.30;63.83;100539.75;10351938;28;20050;-62
2021/10/24 18:12:09;;;;;;;9.88;5.57;;;;;;;6.25;63.94;100537.28;10351193;28;20133;-63
2021/10/24 18:17:11;;;;;;;12.32;6.68;;;;;;;6.12;64.12;100532.50;10365708;28;20455;-62
2021/10/24 18:22:16;;;;;;;9.65;6.03;;;;;;;6.03;64.25;100533.66;10351063;28;20080;-62
2021/10/24 18:27:17;;;;;;;11.43;5.80;;;;;;;5.92;64.51;100534.88;10349964;28;20474;-63
2021/10/24 18:32:19;;;;;;;9.45;5.10;;;;;;;5.84;64.48;100540.28;10350447;28;20402;-63
2021/10/24 18:37:21;;;;;;;9.32;5.10;;;;;;;5.77;64.73;100536.22;10350636;28;20056;-62
2021/10/24 18:42:22;;;;;;;10.52;5.57;;;;;;;5.57;65.09;100534.19;10350736;28;20058;-62
2021/10/24 18:47:24;;;;;;;9.90;5.70;;;;;;;5.52;65.20;100532.63;10350061;28;20064;-63
2021/10/24 18:52:26;;;;;;;9.35;6.88;;;;;;;5.44;65.25;100538.06;10350392;28;20137;-63
2021/10/24 18:57:28;;;;;;;10.38;6.90;;;;;;;5.36;65.61;100526.19;10349357;28;20512;-63
2021/10/24 19:02:29;;;;;;;15.07;8.00;;;;;;;5.34;65.77;100528.84;10349189;28;20058;-63
2021/10/24 19:07:34;;;;;;;12.88;8.43;;;;;;;5.22;65.39;100533.53;10349686;28;20054;-62
2021/10/24 19:12:36;;;;;;;11.00;7.22;;;;;;;5.13;65.79;100528.59;10357074;28;20128;-63
2021/10/24 19:17:38;;;;;;;9.93;6.93;;;;;;;5.04;65.77;100523.69;10348923;28;20586;-63
2021/10/24 19:22:40;;;;;;;9.98;6.28;;;;;;;4.98;65.97;100516.06;10348719;28;20060;-63
2021/10/24 19:27:42;;;;;;;8.25;5.80;;;;;;;4.93;66.13;100513.59;10349105;28;20050;-63
2021/10/24 19:32:43;;;;;;;12.35;6.30;;;;;;;4.87;65.84;100512.91;10348876;28;20089;-62
2021/10/24 19:37:46;;;;;;;12.68;7.88;;;;;;;4.79;66.08;100518.31;10348702;28;20049;-62
2021/10/24 19:42:47;;;;;;;14.20;7.07;;;;;;;4.69;66.31;100520.31;10364025;28;20529;-63
2021/10/24 19:47:49;;;;;;;12.65;6.60;;;;;;;4.63;66.14;100527.38;10388746;28;20053;-63
2021/10/24 19:52:51;;;;;;;13.23;7.65;;;;;;;4.56;66.38;100523.25;10386983;28;20115;-63
2021/10/24 19:57:59;;;;;;;14.13;7.10;;;;;;;4.52;66.81;100530.25;10388485;28;20054;-62
2021/10/24 20:03:02;;;;;;;13.45;7.65;;;;;;;4.40;66.71;100517.63;10347422;28;20506;-63
2021/10/24 20:08:05;;;;;;;16.40;9.07;;;;;;;4.32;66.87;100522.13;10348715;28;20147;-63
2021/10/24 20:13:07;;;;;;;16.50;9.20;;;;;;;4.27;66.93;100520.56;10346161;28;20317;-63
2021/10/24 20:18:11;;;;;;;14.23;8.57;;;;;;;4.23;66.93;100524.13;10347350;28;20409;-62
2021/10/24 20:23:13;;;;;;;12.60;7.85;;;;;;;4.18;66.91;100520.78;10346539;28;20410;-63
2021/10/24 20:28:15;;;;;;;15.07;8.90;;;;;;;4.07;66.56;100521.03;10375699;28;20063;-63
2021/10/24 20:33:17;;;;;;;15.98;9.73;;;;;;;3.72;67.36;100524.38;10349232;28;20050;-63
2021/10/24 20:38:23;;;;;;;16.50;8.35;;;;;;;3.75;67.52;100526.94;10344638;28;20049;-62
2021/10/24 20:43:25;;;;;;;12.70;8.00;;;;;;;3.76;67.46;100512.25;10346107;28;20091;-62
2021/10/24 20:48:27;;;;;;;17.33;7.97;;;;;;;3.60;66.86;100519.50;10345342;28;20804;-63
2021/10/24 20:53:28;;;;;;;12.45;8.50;;;;;;;3.38;67.39;100517.41;10345622;28;20050;-62
2021/10/24 20:58:30;;;;;;;15.05;9.35;;;;;;;3.39;67.27;100521.72;10345767;28;20049;-62
2021/10/24 21:03:32;;;;;;;15.43;8.77;;;;;;;3.40;67.41;100513.91;10345022;28;20056;-63
2021/10/24 21:08:35;;;;;;;15.48;8.60;;;;;;;3.46;67.25;100515.50;10370847;28;20068;-62
2021/10/24 21:13:36;;;;;;;12.43;8.13;;;;;;;3.41;67.21;100512.19;10385503;28;20156;-62
2021/10/24 21:18:38;;;;;;;22.08;10.32;;;;;;;3.40;67.07;100507.88;10385045;28;20115;-63
2021/10/24 21:23:40;;;;;;;57.42;12.43;;;;;;;3.34;67.21;100502.84;10388163;28;20552;-63
2021/10/24 21:28:42;;;;;;;203.35;15.57;;;;;;;3.38;67.22;100495.00;10383706;28;20558;-64
2021/10/24 21:33:44;;;;;;;173.82;15.10;;;;;;;3.30;67.21;100488.28;10352086;28;20050;-63
2021/10/24 21:38:46;;;;;;;210.23;15.20;;;;;;;3.18;67.43;100491.13;10354555;28;20124;-63
2021/10/24 21:43:49;;;;;;;104.25;11.55;;;;;;;3.20;67.45;100491.94;10351999;28;20418;-63
2021/10/24 21:48:51;;;;;;;298.20;21.02;;;;;;;2.92;67.34;100487.34;10351970;28;20053;-63
2021/10/24 21:53:52;;;;;;;105.82;10.82;;;;;;;2.76;67.14;100488.53;10352791;28;20131;-63
2021/10/24 21:58:54;;;;;;;205.40;13.48;;;;;;;2.70;67.69;100483.47;10350490;28;20061;-63
2021/10/24 22:03:56;;;;;;;200.15;15.07;;;;;;;2.67;67.76;100490.44;10367253;28;20056;-63
2021/10/24 22:08:58;;;;;;;169.65;14.40;;;;;;;2.57;67.55;100494.06;10350560;28;20422;-63
2021/10/24 22:14:00;;;;;;;17.63;8.38;;;;;;;2.47;67.73;100489.94;10350236;28;20093;-63
2021/10/24 22:19:02;;;;;;;37.70;9.43;;;;;;;2.57;67.81;100494.91;10350432;28;20046;-63
2021/10/24 22:24:03;;;;;;;199.35;14.07;;;;;;;2.57;67.62;100494.06;10349985;28;20557;-63
2021/10/24 22:29:05;;;;;;;255.20;14.25;;;;;;;2.56;67.69;100490.63;10354062;28;20851;-64
2021/10/24 22:34:08;;;;;;;337.45;18.77;;;;;;;2.60;67.52;100483.69;10347958;28;20164;-64
2021/10/24 22:39:10;;;;;;;360.63;18.73;;;;;;;2.35;67.51;100478.13;10349558;28;20056;-63
2021/10/24 22:44:12;;;;;;;238.75;14.85;;;;;;;2.31;67.89;100486.78;10358071;28;20060;-64
2021/10/24 22:49:14;;;;;;;154.05;11.13;;;;;;;2.41;67.89;100490.06;10347348;28;20513;-64
2021/10/24 22:54:16;;;;;;;333.67;17.95;;;;;;;2.44;67.77;100495.19;10348871;28;20045;-63
2021/10/24 22:59:18;;;;;;;315.42;15.32;;;;;;;2.49;67.88;100489.03;10346967;28;20939;-64
2021/10/24 23:04:19;;;;;;;170.50;11.55;;;;;;;2.53;67.57;100487.25;10348521;28;20041;-63